This is the latest recevied weather packets stored in our database for station/object HS9UAC-10. If no packets are shown the sender has not sent any weather packets the latest 10 day(s).
| Time | Temp. | Humidity | Pressure | Rain* | Wind** | Luminosity | Snow |
|---|---|---|---|---|---|---|---|
| 1777887626 | 38.89° C | 54% | 1005 hPa | - | - | 0 W/m² | - |
| 1777886708 | 38.33° C | 56% | 1005 hPa | - | - | 0 W/m² | - |
| 1777885729 | 40° C | 49% | 1005 hPa | - | - | 0 W/m² | - |
| 1777884869 | 40.56° C | 49% | 1005 hPa | - | - | 0 W/m² | - |
| 1777883857 | 41.11° C | 46% | 1005 hPa | - | - | 0 W/m² | - |
| 1777881331 | 41.67° C | 47% | 1006 hPa | - | - | 0 W/m² | - |
| 1777880406 | 40.56° C | 47% | 1006 hPa | - | - | 0 W/m² | - |
| 1777879482 | 40° C | 49% | 1006 hPa | - | - | 0 W/m² | - |
| 1777878557 | 40° C | 50% | 1007 hPa | - | - | 0 W/m² | - |
| 1777877632 | 40° C | 51% | 1007 hPa | - | - | 0 W/m² | - |
| 1777876708 | 40° C | 48% | 1007 hPa | - | - | 0 W/m² | - |
| 1777875783 | 38.89° C | 54% | 1008 hPa | - | - | 0 W/m² | - |
| 1777874858 | 40.56° C | 48% | 1008 hPa | - | - | 0 W/m² | - |
| 1777873934 | 40° C | 47% | 1008 hPa | - | - | 0 W/m² | - |
| 1777873009 | 39.44° C | 50% | 1008 hPa | - | - | 0 W/m² | - |
| 1777872085 | 38.89° C | 48% | 1009 hPa | - | - | 0 W/m² | - |
| 1777871159 | 38.89° C | 47% | 1009 hPa | - | - | 0 W/m² | - |
| 1777870610 | 39.44° C | 46% | 1009 hPa | - | - | 0 W/m² | - |
| 1777869685 | 38.89° C | 48% | 1009 hPa | - | - | 0 W/m² | - |
| 1777868761 | 38.89° C | 49% | 1009 hPa | - | - | 0 W/m² | - |
| 1777867836 | 38.89° C | 49% | 1010 hPa | - | - | 0 W/m² | - |
| 1777866912 | 39.44° C | 50% | 1010 hPa | - | - | 0 W/m² | - |
| 1777865987 | 38.89° C | 52% | 1010 hPa | - | - | 0 W/m² | - |
| 1777865062 | 37.78° C | 55% | 1010 hPa | - | - | 0 W/m² | - |
| 1777864138 | 37.78° C | 57% | 1010 hPa | - | - | 0 W/m² | - |
* Rain since midnight (hover to see other rain measurements)
** Current wind speed in m/s (hover to see current wind gust speed)